CLEVELAND ARTCC (ZOB) FACILITY RUNWAY SELECTOR
METARS UPDATED AT 1708Z

Page auto refreshed every 5 minutes
FACILITYWINDVISIBILITY
CEILING
RUNWAY FLOWAPPROACHMETAR
KAGC310@11/G2110SM
OVC035
West Flow
DEP: 28, 31 (GA)
ARR: 28, 31 (GA)
Visual ApproachKAGC 191653Z 31011G21KT 10SM FEW026 OVC035 02/M02 A3001 RMK AO2 PK WND 31026/1625 SLP175 T00171022
KBKL310@1510SM
OVC039
24 Flow
DEP: 24L (GA), 24R
ARR: 24L (GA), 24R
Visual ApproachKBKL 191653Z 31015KT 10SM SCT027 SCT033 OVC039 04/M02 A3012 RMK AO2 SLP203 T00391022
KBUF330@15/G1810SM
BKN028
32 Flow
DEP: 32
ARR: 32
Instrument ApproachKBUF 191654Z 33015G18KT 10SM -SN FEW020 BKN028 BKN042 02/M03 A2994 RMK AO2 SLP147 PCPN VRY LGT P0000 T00221033
KCAK330@12/G2510SM
BKN024
North Flow
DEP: 1
ARR: 5
Instrument ApproachKCAK 191651Z 33012G25KT 10SM BKN024 OVC042 04/M02 A3007 RMK AO2 PK WND 33029/1641 SLP193 SNE37 P0000 T00391022
KCGF340@1110SM
BKN025
6 Flow
DEP: 6
ARR: 6
Instrument ApproachKCGF 191645Z 34011KT 10SM BKN025 04/M01 A3011
KCLE320@16/G2410SM
BKN030
North Flow
DEP: 24L
ARR: 24R
Visual ApproachKCLE 191651Z 32016G24KT 10SM BKN030 OVC035 04/M02 A3015 RMK AO2 SLP214 T00441017 $
KDTW320@16/G2010SM
----
North Flow
DEP: 3L, 4R
ARR: 3R, 4L
Visual ApproachKDTW 191653Z 32016G20KT 10SM CLR 09/M05 A3013 RMK AO2 SLP207 T00891050
KERI320@0810SM
OVC033
West Flow
DEP: 20 (GA), 24
ARR: 20 (GA), 24
Instrument ApproachKERI 191651Z 32008KT 10SM OVC033 03/M03 A3004 RMK AO2 SLP179 T00281033
KFNT320@17/G2110SM
----
36 Flow
DEP: 36
ARR: 36
Visual ApproachKFNT 191653Z 32017G21KT 10SM CLR 07/M03 A3014 RMK AO2 SLP214 T00671033
KIAG320@1610SM
BKN028
South Flow
DEP: 28R, 28L (GA)
ARR: 28R, 28L (GA)
Visual ApproachKIAG 191653Z 32016KT 10SM BKN028 BKN035 OVC045 04/M03 A2995 RMK AO2 RAE1554B26E53 SLP155 P0000 T00391033 $
KJST300@19/G241/2S
OVC006
33 Flow
DEP: 33
ARR: 33
Instrument ApproachKJST 191654Z 30019G24KT 1/2SM -SN FZFG OVC006 M01/M02 A2988 RMK AO2 SLP135 P0002 T10061022
KLAN320@15/G1810SM
----
36 Flow
DEP: 36
ARR: 36
Visual ApproachKLAN 191653Z 32015G18KT 10SM CLR 08/M02 A3018 RMK AO2 SLP227 T00831017
KPIT320@1210SM
OVC026
West Flow
DEP: 28R, 28C
ARR: 28R, 28L, 32 (GA)
Instrument ApproachKPIT 191651Z 32012KT 10SM OVC026 02/M02 A3002 RMK AO2 PK WND 32026/1604 SLP181 T00221022
KROC320@10/G216SM
BKN034
4/7 Flow
DEP: 4, 7 (GA)
ARR: 4, 7 (GA)
Visual ApproachKROC 191654Z 32010G21KT 6SM -SN SCT026 BKN034 OVC045 02/M02 A2991 RMK AO2 SLP135 P0000 T00221022
KTOL310@1210SM
----
25/34 Flow
DEP: 25, 34 (GA)
ARR: 25, 34 (GA)
Visual ApproachKTOL 191652Z 31012KT 10SM CLR 08/M02 A3016 RMK AO2 SLP217 T00831022
KYNG330@159SM -
OVC023
32 Flow
DEP: 32
ARR: 32
Instrument ApproachKYNG 191651Z 33015KT 9SM -SN OVC023 03/M02 A3003 RMK AO2 PK WND 31026/1620 SLP179 BINOVC P0000 T00281022
NOTE: Runway selection based on current VATSIM metar and ZOB SOPs.
Ceiling = Lowest reported ceiling.
GA = General Aviation aircraft only.
METAR Decode Key